Time;durP1;ratioP1;P1;durP2;ratioP2;P2;SDS_P1;SDS_P2;PMS_P1;PMS_P2;Temp;Humidity;BMP_temperature;BMP_pressure;BME280_temperature;BME280_humidity;BME280_pressure;Samples;Min_cycle;Max_cycle;Signal;HPM_P1;HPM_P2
2023/04/17 00:00:17;;;;;;;89.65;49.15;;;8.20;99.90;;;;;;5034308;28;20046;-84
2023/04/17 00:02:43;;;;;;;94.90;50.13;;;8.20;99.90;;;;;;5035725;28;20045;-84
2023/04/17 00:05:09;;;;;;;92.05;49.78;;;8.20;99.90;;;;;;5035738;28;20128;-86
2023/04/17 00:07:40;;;;;;;97.60;51.85;;;8.20;99.90;;;;;;5019143;28;20131;-85
2023/04/17 00:10:10;;;;;;;99.68;51.63;;;8.20;99.90;;;;;;5035761;28;20136;-86
2023/04/17 00:12:36;;;;;;;93.15;50.70;;;8.20;99.90;;;;;;5036922;28;20052;-85
2023/04/17 00:15:05;;;;;;;96.75;51.58;;;8.20;99.90;;;;;;5035898;28;20062;-84
2023/04/17 00:17:31;;;;;;;100.38;51.92;;;8.20;99.90;;;;;;5035198;28;20057;-85
2023/04/17 00:19:57;;;;;;;96.93;50.38;;;8.20;99.90;;;;;;5002921;28;20551;-85
2023/04/17 00:22:23;;;;;;;101.95;51.30;;;8.20;99.90;;;;;;5018466;28;20049;-85
2023/04/17 00:24:49;;;;;;;96.75;51.28;;;8.20;99.90;;;;;;5018185;28;20091;-85
2023/04/17 00:27:14;;;;;;;101.85;51.13;;;8.30;99.90;;;;;;5018894;28;20053;-86
2023/04/17 00:29:40;;;;;;;102.28;50.92;;;8.30;99.90;;;;;;5035257;28;20061;-85
2023/04/17 00:32:06;;;;;;;99.72;52.47;;;8.30;99.90;;;;;;5018771;28;20132;-86
2023/04/17 00:34:32;;;;;;;103.10;52.22;;;8.30;99.90;;;;;;5035102;28;20053;-86
2023/04/17 00:36:58;;;;;;;101.95;52.28;;;8.30;99.90;;;;;;5035869;28;20049;-85
2023/04/17 00:39:24;;;;;;;102.68;51.45;;;8.30;99.90;;;;;;5018162;28;20516;-86
2023/04/17 00:41:50;;;;;;;98.60;52.17;;;8.30;99.90;;;;;;5034557;28;20564;-86
2023/04/17 00:44:16;;;;;;;102.60;51.53;;;8.30;99.90;;;;;;5017940;28;20103;-87
2023/04/17 00:46:41;;;;;;;98.50;52.17;;;8.30;99.90;;;;;;5034212;28;20073;-86
2023/04/17 00:49:08;;;;;;;95.95;51.08;;;8.30;99.90;;;;;;5018475;28;20064;-86
2023/04/17 00:51:34;;;;;;;94.60;50.50;;;8.30;99.90;;;;;;5015079;28;20042;-85
2023/04/17 00:54:00;;;;;;;99.80;51.60;;;8.30;99.90;;;;;;4982304;28;20073;-86
2023/04/17 00:56:27;;;;;;;90.93;50.55;;;8.30;99.90;;;;;;4998627;28;20141;-85
2023/04/17 00:58:55;;;;;;;93.20;50.72;;;8.30;99.90;;;;;;5014875;28;20057;-86
2023/04/17 01:01:21;;;;;;;93.90;50.50;;;8.30;99.90;;;;;;5014777;28;20049;-86
2023/04/17 01:03:49;;;;;;;90.97;49.63;;;8.30;99.90;;;;;;5014869;28;20053;-86
2023/04/17 01:06:15;;;;;;;94.35;50.60;;;8.30;99.90;;;;;;5014426;28;20052;-87
2023/04/17 01:08:42;;;;;;;96.18;50.63;;;8.30;99.90;;;;;;5014125;28;20052;-86
2023/04/17 01:11:09;;;;;;;90.57;50.50;;;8.30;99.90;;;;;;5013657;28;20050;-86
2023/04/17 01:13:48;;;;;;;92.20;49.85;;;8.30;99.90;;;;;;4998253;28;20485;-86
2023/04/17 01:16:14;;;;;;;92.03;49.67;;;8.30;99.90;;;;;;4997990;28;20057;-85
2023/04/17 01:18:40;;;;;;;90.38;50.67;;;8.30;99.90;;;;;;5013858;28;20053;-86
2023/04/17 01:21:06;;;;;;;92.75;49.28;;;8.40;99.90;;;;;;4997943;28;20140;-87
2023/04/17 01:24:02;;;;;;;89.80;48.97;;;8.40;99.90;;;;;;5014300;28;20184;-86
2023/04/17 01:26:30;;;;;;;84.40;48.55;;;8.40;99.90;;;;;;5013148;28;20053;-86
2023/04/17 01:28:57;;;;;;;90.05;49.25;;;8.30;99.90;;;;;;5014004;28;20048;-86
2023/04/17 01:31:24;;;;;;;90.57;48.42;;;8.30;99.90;;;;;;5014400;28;20077;-86
2023/04/17 01:33:50;;;;;;;95.35;49.53;;;8.30;99.90;;;;;;4981528;28;20038;-87
2023/04/17 01:36:17;;;;;;;93.47;49.10;;;8.30;99.90;;;;;;5013655;28;20050;-87
2023/04/17 01:38:43;;;;;;;91.30;48.97;;;8.30;99.90;;;;;;5014258;28;20046;-86
2023/04/17 01:41:10;;;;;;;92.25;49.33;;;8.30;99.90;;;;;;5013732;28;20053;-86
2023/04/17 01:43:38;;;;;;;89.93;50.40;;;8.30;99.90;;;;;;5014177;28;20363;-86
2023/04/17 01:46:04;;;;;;;86.28;49.30;;;8.30;99.90;;;;;;4997459;28;20046;-86
2023/04/17 01:48:29;;;;;;;88.28;49.92;;;8.30;99.90;;;;;;5013751;28;20576;-86
2023/04/17 01:50:55;;;;;;;89.70;49.58;;;8.30;99.90;;;;;;4997657;28;20045;-85
2023/04/17 01:53:21;;;;;;;88.25;49.17;;;8.30;99.90;;;;;;5014647;28;20091;-86
2023/04/17 01:55:47;;;;;;;86.32;48.75;;;8.30;99.90;;;;;;5033621;28;20049;-86
2023/04/17 01:58:12;;;;;;;86.75;49.78;;;8.40;99.90;;;;;;5033561;28;20132;-86
2023/04/17 02:00:38;;;;;;;86.13;48.83;;;8.30;99.90;;;;;;5033233;28;20080;-86
2023/04/17 02:03:04;;;;;;;83.45;49.10;;;8.40;99.90;;;;;;5016673;28;20049;-86
2023/04/17 02:05:30;;;;;;;84.43;48.67;;;8.40;99.90;;;;;;5033088;28;20049;-86
2023/04/17 02:07:56;;;;;;;82.30;48.28;;;8.40;99.90;;;;;;5016974;28;20080;-86
2023/04/17 02:10:22;;;;;;;81.22;48.17;;;8.40;99.90;;;;;;5033300;28;20496;-86
2023/04/17 02:12:48;;;;;;;78.53;47.42;;;8.40;99.90;;;;;;5033254;28;20410;-85
2023/04/17 02:15:14;;;;;;;80.00;48.75;;;8.40;99.90;;;;;;5033252;28;20060;-85
2023/04/17 02:17:39;;;;;;;85.85;48.20;;;8.30;99.90;;;;;;5016045;28;20057;-86
2023/04/17 02:20:06;;;;;;;88.10;47.90;;;8.30;99.90;;;;;;5016222;28;20080;-86
2023/04/17 02:22:32;;;;;;;86.68;49.08;;;8.40;99.90;;;;;;5032126;28;20061;-86
2023/04/17 02:24:57;;;;;;;86.43;48.47;;;8.40;99.90;;;;;;5032613;28;20263;-85
2023/04/17 02:27:23;;;;;;;88.25;49.72;;;8.30;99.90;;;;;;5016750;28;20088;-87
2023/04/17 02:29:49;;;;;;;84.82;48.83;;;8.40;99.90;;;;;;5032916;28;20134;-86
2023/04/17 02:32:18;;;;;;;89.25;49.63;;;8.30;99.90;;;;;;5000302;28;20481;-86
2023/04/17 02:34:44;;;;;;;86.40;48.92;;;8.30;99.90;;;;;;5032696;28;20099;-85
2023/04/17 02:37:10;;;;;;;88.82;49.65;;;8.30;99.90;;;;;;5016257;28;20092;-86
2023/04/17 02:39:35;;;;;;;87.55;49.30;;;8.30;99.90;;;;;;4999684;28;20059;-85
2023/04/17 02:42:01;;;;;;;86.88;49.28;;;8.30;99.90;;;;;;5016400;28;20123;-86
2023/04/17 02:44:28;;;;;;;96.18;50.35;;;8.30;99.90;;;;;;5015929;28;20037;-85
2023/04/17 02:46:53;;;;;;;96.65;50.85;;;8.30;99.90;;;;;;5032131;28;20045;-85
2023/04/17 02:49:20;;;;;;;95.40;50.90;;;8.30;99.90;;;;;;5016010;28;20133;-85
2023/04/17 02:51:46;;;;;;;103.03;51.67;;;8.30;99.90;;;;;;5032557;28;20050;-85
2023/04/17 02:54:12;;;;;;;103.63;52.78;;;8.30;99.90;;;;;;5032702;28;20053;-85
2023/04/17 02:56:37;;;;;;;101.75;53.47;;;8.20;99.90;;;;;;5015890;28;20037;-86
2023/04/17 02:59:03;;;;;;;108.35;52.30;;;8.20;99.90;;;;;;5016171;28;20502;-87
2023/04/17 03:01:29;;;;;;;113.88;55.03;;;8.20;99.90;;;;;;5015880;28;20049;-85
2023/04/17 03:03:55;;;;;;;113.75;54.00;;;8.10;99.90;;;;;;5016057;28;20160;-85
2023/04/17 03:06:22;;;;;;;110.60;55.40;;;7.50;99.90;;;;;;5015537;28;20129;-84
2023/04/17 03:08:48;;;;;;;116.45;54.78;;;8.10;99.90;;;;;;5032454;28;20049;-84
2023/04/17 03:11:14;;;;;;;111.93;55.28;;;7.40;99.90;;;;;;5032515;28;20054;-84
2023/04/17 03:13:40;;;;;;;116.45;55.88;;;8.10;99.90;;;;;;5016054;28;20172;-85
2023/04/17 03:16:06;;;;;;;124.45;57.22;;;8.10;99.90;;;;;;5015765;28;20120;-86
2023/04/17 03:18:34;;;;;;;118.75;56.58;;;8.10;99.90;;;;;;5031929;28;20064;-84
2023/04/17 03:21:03;;;;;;;120.82;57.17;;;7.50;99.90;;;;;;5032360;28;20137;-85
2023/04/17 03:23:29;;;;;;;119.43;56.50;;;8.10;99.90;;;;;;5032246;28;20405;-85
2023/04/17 03:25:54;;;;;;;128.27;57.08;;;8.10;99.90;;;;;;5033255;28;20045;-85
2023/04/17 03:28:21;;;;;;;137.45;57.65;;;8.00;99.90;;;;;;5031972;28;20497;-84
2023/04/17 03:30:48;;;;;;;141.57;58.70;;;8.00;99.90;;;;;;5015606;28;20112;-84
2023/04/17 03:33:15;;;;;;;138.85;58.38;;;8.00;99.90;;;;;;5032197;28;20052;-85
2023/04/17 03:35:41;;;;;;;122.60;57.97;;;8.00;99.90;;;;;;5035373;28;20049;-86
2023/04/17 03:38:07;;;;;;;130.88;57.10;;;8.00;99.90;;;;;;5036204;28;20056;-85
2023/04/17 03:40:33;;;;;;;139.00;57.97;;;8.00;99.90;;;;;;5036163;28;20053;-84
2023/04/17 03:43:00;;;;;;;123.18;57.17;;;8.00;99.90;;;;;;5003098;28;20049;-85
2023/04/17 03:45:25;;;;;;;135.05;58.00;;;8.00;99.90;;;;;;5035741;28;20045;-85
2023/04/17 03:47:51;;;;;;;117.35;57.13;;;8.00;99.90;;;;;;5037174;28;20484;-84
2023/04/17 03:50:17;;;;;;;130.63;59.30;;;8.00;99.90;;;;;;5036008;28;20041;-84
2023/04/17 03:52:43;;;;;;;132.20;58.15;;;8.00;99.90;;;;;;5035163;28;20459;-84
2023/04/17 03:55:10;;;;;;;120.60;56.00;;;8.00;99.90;;;;;;5035968;28;20056;-83
2023/04/17 03:57:36;;;;;;;120.50;56.95;;;8.10;99.90;;;;;;5035350;28;20041;-84
2023/04/17 04:00:03;;;;;;;139.73;58.50;;;8.10;99.90;;;;;;5035204;28;20087;-84
2023/04/17 04:02:29;;;;;;;135.50;60.10;;;8.10;99.90;;;;;;5035685;28;20048;-84
2023/04/17 04:04:55;;;;;;;121.43;56.92;;;8.10;99.90;;;;;;5035535;28;20397;-85
2023/04/17 04:07:20;;;;;;;127.25;58.70;;;8.10;99.90;;;;;;5018655;28;20056;-84
2023/04/17 04:09:49;;;;;;;131.30;59.55;;;8.00;99.90;;;;;;5002860;28;20125;-84
2023/04/17 04:12:15;;;;;;;136.75;58.78;;;8.00;99.90;;;;;;5019373;28;20046;-84
2023/04/17 04:14:41;;;;;;;133.43;60.13;;;8.00;99.90;;;;;;5018942;28;20397;-85
2023/04/17 04:17:09;;;;;;;131.65;59.17;;;8.00;99.90;;;;;;5019228;28;20140;-84
2023/04/17 04:19:35;;;;;;;124.03;57.80;;;8.00;99.90;;;;;;5035489;28;20136;-84
2023/04/17 04:22:01;;;;;;;122.38;56.92;;;8.00;99.90;;;;;;5035241;28;20413;-85
2023/04/17 04:24:32;;;;;;;134.85;57.33;;;8.00;99.90;;;;;;5018216;28;20045;-84
2023/04/17 04:27:04;;;;;;;129.02;58.40;;;7.90;99.90;;;;;;5035029;28;20447;-84
2023/04/17 04:29:33;;;;;;;131.10;57.75;;;7.40;99.90;;;;;;5019250;28;20447;-84
2023/04/17 04:32:00;;;;;;;127.97;57.50;;;7.90;99.90;;;;;;5035183;28;20460;-84
2023/04/17 04:34:28;;;;;;;132.02;57.47;;;7.90;99.90;;;;;;5035150;28;20121;-85
2023/04/17 04:36:55;;;;;;;136.90;57.53;;;7.90;99.90;;;;;;5035047;28;20046;-85
2023/04/17 04:39:21;;;;;;;143.55;57.90;;;7.90;99.90;;;;;;5035124;28;20046;-84
2023/04/17 04:41:51;;;;;;;151.63;61.35;;;7.90;99.90;;;;;;5019031;28;20052;-84
2023/04/17 04:44:18;;;;;;;139.15;57.42;;;7.90;99.90;;;;;;5035006;28;20471;-84
2023/04/17 04:46:44;;;;;;;145.77;59.17;;;7.90;99.90;;;;;;5033221;28;20044;-85
2023/04/17 04:49:10;;;;;;;165.15;59.92;;;7.90;99.90;;;;;;5017935;28;20053;-84
2023/04/17 04:51:36;;;;;;;158.20;60.10;;;7.90;99.90;;;;;;5018165;28;20053;-85
2023/04/17 04:54:02;;;;;;;163.45;60.80;;;7.80;99.90;;;;;;5017751;28;20051;-85
2023/04/17 04:56:28;;;;;;;170.23;59.55;;;7.80;99.90;;;;;;5034642;28;20057;-85
2023/04/17 04:58:55;;;;;;;159.00;59.33;;;7.90;99.90;;;;;;5017847;28;20060;-84
2023/04/17 05:01:21;;;;;;;179.10;60.95;;;7.80;99.90;;;;;;5017443;28;20128;-84
2023/04/17 05:03:47;;;;;;;169.35;61.42;;;7.80;99.90;;;;;;5034539;28;20132;-84
2023/04/17 05:06:13;;;;;;;154.85;60.15;;;7.80;99.90;;;;;;5034149;28;20382;-85
2023/04/17 05:08:40;;;;;;;141.38;59.58;;;7.80;99.90;;;;;;5034107;28;20046;-84
2023/04/17 05:11:05;;;;;;;147.60;59.42;;;7.80;99.90;;;;;;5017367;28;20045;-84
2023/04/17 05:13:31;;;;;;;149.27;58.97;;;7.90;99.90;;;;;;5017239;28;20049;-85
2023/04/17 05:15:57;;;;;;;165.95;58.63;;;7.90;99.90;;;;;;5033967;28;20056;-85
2023/04/17 05:18:26;;;;;;;134.75;57.00;;;7.90;99.90;;;;;;5018013;28;20444;-85
2023/04/17 05:20:52;;;;;;;132.63;58.00;;;7.90;99.90;;;;;;5034072;28;20103;-84
2023/04/17 05:23:21;;;;;;;133.35;57.47;;;7.90;99.90;;;;;;5000560;28;20054;-84
2023/04/17 05:25:48;;;;;;;126.50;55.90;;;7.90;99.90;;;;;;5014299;28;20061;-84
2023/04/17 05:28:14;;;;;;;136.65;57.25;;;7.90;99.90;;;;;;5014263;28;20058;-84
2023/04/17 05:30:40;;;;;;;137.48;58.63;;;7.90;99.90;;;;;;5014239;28;20048;-85
2023/04/17 05:33:05;;;;;;;137.73;57.78;;;7.90;99.90;;;;;;4997981;28;20050;-84
2023/04/17 05:35:32;;;;;;;123.78;56.45;;;7.90;99.90;;;;;;5014259;28;20136;-85
2023/04/17 05:37:57;;;;;;;119.90;55.65;;;7.90;99.90;;;;;;4997784;28;20498;-84
2023/04/17 05:40:23;;;;;;;117.68;53.88;;;7.90;99.90;;;;;;5014370;28;20089;-84
2023/04/17 05:42:49;;;;;;;122.97;55.55;;;7.90;99.90;;;;;;4997405;28;20060;-85
2023/04/17 05:45:16;;;;;;;115.82;53.72;;;7.90;99.90;;;;;;4981214;28;20146;-84
2023/04/17 05:47:42;;;;;;;113.43;54.03;;;7.90;99.90;;;;;;4997661;28;20050;-85
2023/04/17 05:50:08;;;;;;;118.88;54.28;;;7.90;99.90;;;;;;4997693;28;20145;-84
2023/04/17 05:52:35;;;;;;;120.97;54.05;;;8.00;99.90;;;;;;4997149;28;20061;-84
2023/04/17 05:55:02;;;;;;;115.78;53.25;;;8.00;99.90;;;;;;5013906;28;20060;-84
2023/04/17 05:57:31;;;;;;;117.30;52.15;;;8.00;99.90;;;;;;4997392;28;20068;-84
2023/04/17 05:59:57;;;;;;;112.60;51.17;;;8.00;99.90;;;;;;5013847;28;20050;-85
2023/04/17 06:02:23;;;;;;;113.78;52.08;;;8.00;99.90;;;;;;4980733;28;20100;-84
2023/04/17 06:04:49;;;;;;;110.80;52.25;;;8.00;99.90;;;;;;4981203;28;20184;-84
2023/04/17 06:07:14;;;;;;;108.88;53.08;;;8.00;99.90;;;;;;5013352;28;20128;-85
2023/04/17 06:09:40;;;;;;;113.45;54.33;;;8.00;99.90;;;;;;4997201;28;20052;-85
2023/04/17 06:12:13;;;;;;;94.63;50.45;;;8.00;99.90;;;;;;4997390;28;20046;-84
2023/04/17 06:14:39;;;;;;;95.68;50.38;;;8.10;99.90;;;;;;4998127;28;20046;-85
2023/04/17 06:17:05;;;;;;;97.95;50.97;;;8.10;99.90;;;;;;4980885;28;20064;-84
2023/04/17 06:19:30;;;;;;;91.25;49.65;;;8.10;99.90;;;;;;5013513;28;20493;-85
2023/04/17 06:21:56;;;;;;;89.95;50.60;;;8.20;99.90;;;;;;5003203;28;20401;-85
2023/04/17 06:24:22;;;;;;;91.78;48.80;;;8.20;99.90;;;;;;5000624;28;20402;-84
2023/04/17 06:26:47;;;;;;;96.20;50.58;;;8.20;99.90;;;;;;5016063;28;20557;-84
2023/04/17 06:29:14;;;;;;;100.57;50.50;;;8.20;99.90;;;;;;5016696;28;20041;-84
2023/04/17 06:31:40;;;;;;;98.70;50.65;;;8.20;99.90;;;;;;5016413;28;20485;-85
2023/04/17 06:34:06;;;;;;;98.03;50.35;;;8.20;99.90;;;;;;5032926;28;20050;-85
2023/04/17 06:36:32;;;;;;;95.07;50.13;;;8.20;99.90;;;;;;5016232;28;20127;-84
2023/04/17 06:38:57;;;;;;;92.65;48.55;;;8.20;99.90;;;;;;5016511;28;20045;-85
2023/04/17 06:41:23;;;;;;;95.10;50.42;;;8.10;99.90;;;;;;5016412;28;20056;-84
2023/04/17 06:43:49;;;;;;;93.13;50.60;;;8.10;99.90;;;;;;5032860;28;20057;-84
2023/04/17 06:46:15;;;;;;;95.65;49.53;;;8.20;99.90;;;;;;5032600;28;20041;-84
2023/04/17 06:48:43;;;;;;;97.57;50.95;;;8.20;99.90;;;;;;5015968;28;20524;-85
2023/04/17 06:51:08;;;;;;;108.25;54.30;;;8.20;99.90;;;;;;5016305;28;20049;-85
2023/04/17 06:53:34;;;;;;;94.45;50.63;;;8.20;99.90;;;;;;5016049;28;20098;-84
2023/04/17 06:56:00;;;;;;;92.35;50.08;;;8.20;99.90;;;;;;4999883;28;20049;-85
2023/04/17 06:58:26;;;;;;;97.63;50.72;;;8.20;99.90;;;;;;5032384;28;20052;-84
2023/04/17 07:00:52;;;;;;;93.90;49.13;;;8.20;99.90;;;;;;5032575;28;20042;-84
2023/04/17 07:03:17;;;;;;;97.30;51.85;;;8.30;99.90;;;;;;5032598;28;20053;-83
2023/04/17 07:05:44;;;;;;;98.85;50.38;;;8.40;99.90;;;;;;5032407;28;20045;-84
2023/04/17 07:08:09;;;;;;;94.30;49.83;;;8.40;99.90;;;;;;5032312;28;20049;-84
2023/04/17 07:10:35;;;;;;;90.45;49.70;;;8.40;99.90;;;;;;5032332;28;20042;-84
2023/04/17 07:13:02;;;;;;;88.15;48.97;;;8.50;99.90;;;;;;5032455;28;20095;-84
2023/04/17 07:15:29;;;;;;;83.95;48.95;;;8.50;99.90;;;;;;5015821;28;20045;-85
2023/04/17 07:17:55;;;;;;;84.70;48.10;;;8.50;99.90;;;;;;5015747;28;20057;-84
2023/04/17 07:20:21;;;;;;;81.53;47.10;;;8.40;99.90;;;;;;5015494;28;20092;-84
2023/04/17 07:22:48;;;;;;;79.15;48.33;;;8.50;99.90;;;;;;5015804;28;20081;-84
2023/04/17 07:25:14;;;;;;;81.10;48.42;;;8.50;99.90;;;;;;5015779;28;20083;-84
2023/04/17 07:27:40;;;;;;;84.55;48.60;;;8.60;99.90;;;;;;5015982;28;20076;-84
2023/04/17 07:30:09;;;;;;;85.75;47.95;;;8.70;99.90;;;;;;5016330;28;20048;-84
2023/04/17 07:32:35;;;;;;;84.32;48.22;;;8.70;99.90;;;;;;5032367;28;20060;-85
2023/04/17 07:35:01;;;;;;;90.20;49.78;;;8.70;99.90;;;;;;5031626;28;20132;-84
2023/04/17 07:37:27;;;;;;;83.13;47.47;;;8.70;99.90;;;;;;5031686;28;20124;-84
2023/04/17 07:39:52;;;;;;;82.07;48.88;;;8.80;99.90;;;;;;5032240;28;20050;-85
2023/04/17 07:42:18;;;;;;;81.93;47.78;;;8.80;99.90;;;;;;5032236;28;20438;-84
2023/04/17 07:44:45;;;;;;;87.00;50.60;;;8.80;99.90;;;;;;5015102;28;20140;-85
2023/04/17 07:47:11;;;;;;;81.88;48.40;;;8.90;99.90;;;;;;5031808;28;20108;-83
2023/04/17 07:49:39;;;;;;;84.07;49.65;;;8.90;99.90;;;;;;5015802;28;20046;-85
2023/04/17 07:52:05;;;;;;;82.07;49.63;;;8.90;99.90;;;;;;5031991;28;20052;-85
2023/04/17 07:54:31;;;;;;;85.43;50.10;;;9.00;99.90;;;;;;4998859;28;20045;-85
2023/04/17 07:57:01;;;;;;;78.15;49.08;;;9.00;99.90;;;;;;5032057;28;20065;-84
2023/04/17 07:59:27;;;;;;;81.07;50.50;;;9.10;99.90;;;;;;5015994;28;20053;-84
2023/04/17 08:01:53;;;;;;;80.82;49.35;;;9.10;99.90;;;;;;5015570;28;20049;-85
2023/04/17 08:04:19;;;;;;;84.78;50.80;;;9.20;99.90;;;;;;5032142;28;20048;-84
2023/04/17 08:06:46;;;;;;;80.88;51.17;;;9.20;99.90;;;;;;5031751;28;20404;-85
2023/04/17 08:09:14;;;;;;;76.53;50.80;;;9.30;99.90;;;;;;5015589;28;20053;-84
2023/04/17 08:11:42;;;;;;;76.30;51.38;;;9.50;99.90;;;;;;5031951;28;20393;-85
2023/04/17 08:14:07;;;;;;;71.53;49.70;;;9.60;99.90;;;;;;5031686;28;20481;-86
2023/04/17 08:16:33;;;;;;;75.22;51.95;;;9.70;99.90;;;;;;5031733;28;20103;-85
2023/04/17 08:18:59;;;;;;;71.97;49.45;;;9.80;99.90;;;;;;5031699;28;20132;-87
2023/04/17 08:21:25;;;;;;;74.28;50.72;;;10.00;99.90;;;;;;5016690;28;20572;-86
2023/04/17 08:23:51;;;;;;;71.75;48.50;;;10.20;99.90;;;;;;5035429;28;20115;-85
2023/04/17 08:26:19;;;;;;;68.63;48.13;;;10.20;99.90;;;;;;5002257;28;20087;-85
2023/04/17 08:28:45;;;;;;;68.93;48.63;;;10.30;99.90;;;;;;5019151;28;20053;-85
2023/04/17 08:31:12;;;;;;;69.38;48.97;;;10.40;99.90;;;;;;5035364;28;20562;-85
2023/04/17 08:33:38;;;;;;;68.38;48.15;;;10.40;99.90;;;;;;5035221;28;20477;-86
2023/04/17 08:36:04;;;;;;;65.32;47.25;;;10.40;99.90;;;;;;5018326;28;20087;-85
2023/04/17 08:38:30;;;;;;;62.33;45.83;;;10.50;99.90;;;;;;5018218;28;20563;-85
2023/04/17 08:41:06;;;;;;;60.65;45.15;;;10.60;99.90;;;;;;5035158;28;20053;-86
2023/04/17 08:43:35;;;;;;;58.90;44.53;;;10.80;99.90;;;;;;5035045;28;20063;-87
2023/04/17 08:46:02;;;;;;;60.35;44.67;;;10.90;99.90;;;;;;5034688;28;20080;-85
2023/04/17 08:48:30;;;;;;;56.85;43.28;;;11.10;99.90;;;;;;5034877;28;20053;-86
2023/04/17 08:50:57;;;;;;;56.60;43.40;;;11.20;99.90;;;;;;5034855;28;20052;-86
2023/04/17 08:53:22;;;;;;;52.95;41.33;;;11.20;99.90;;;;;;5018332;28;20077;-86
2023/04/17 08:55:48;;;;;;;56.60;42.53;;;11.40;99.90;;;;;;5001889;28;20100;-86
2023/04/17 08:58:14;;;;;;;52.00;40.13;;;11.50;99.90;;;;;;5018394;28;20099;-86
2023/04/17 09:00:42;;;;;;;48.55;37.38;;;11.50;99.90;;;;;;5018092;28;20045;-86
2023/04/17 09:03:10;;;;;;;47.65;38.22;;;11.50;99.90;;;;;;5017886;28;20088;-87
2023/04/17 09:05:37;;;;;;;45.58;37.33;;;11.70;99.90;;;;;;5017764;28;20049;-86
2023/04/17 09:08:11;;;;;;;42.70;37.03;;;11.80;99.90;;;;;;5034681;28;20076;-86
2023/04/17 09:10:41;;;;;;;46.88;37.08;;;12.00;99.90;;;;;;5034537;28;20128;-86
2023/04/17 09:13:13;;;;;;;43.28;35.97;;;12.10;99.90;;;;;;5034449;28;20511;-86
2023/04/17 09:15:39;;;;;;;38.22;32.78;;;12.20;99.90;;;;;;5034532;28;20057;-87
2023/04/17 09:18:23;;;;;;;38.95;33.33;;;12.40;99.90;;;;;;5035087;28;20057;-86
2023/04/17 09:20:50;;;;;;;39.80;32.22;;;12.60;99.90;;;;;;5034544;28;20057;-86
2023/04/17 09:23:16;;;;;;;37.53;31.88;;;12.80;99.90;;;;;;5017777;28;20048;-85
2023/04/17 09:25:42;;;;;;;34.50;30.50;;;12.80;99.90;;;;;;4998318;28;20053;-86
2023/04/17 09:28:13;;;;;;;37.00;30.80;;;13.00;99.90;;;;;;5015202;28;20053;-85
2023/04/17 09:30:45;;;;;;;35.03;30.58;;;13.20;99.90;;;;;;4999083;28;20057;-86
2023/04/17 09:33:11;;;;;;;33.42;28.75;;;13.30;99.90;;;;;;4998996;28;20049;-86
2023/04/17 09:35:37;;;;;;;35.15;30.80;;;13.30;99.90;;;;;;5016659;28;20104;-86
2023/04/17 09:38:03;;;;;;;33.65;28.55;;;13.30;99.90;;;;;;4998792;28;20543;-86
2023/04/17 09:40:41;;;;;;;30.95;26.88;;;13.30;99.90;;;;;;4999358;28;20114;-86
2023/04/17 09:43:08;;;;;;;29.30;25.55;;;13.20;99.90;;;;;;5015566;28;20512;-86
2023/04/17 09:45:40;;;;;;;31.65;27.77;;;13.30;99.90;;;;;;4997775;28;20100;-85
2023/04/17 09:48:11;;;;;;;30.90;27.50;;;13.20;99.90;;;;;;5014835;28;20042;-86
2023/04/17 09:50:37;;;;;;;30.55;25.02;;;13.40;99.90;;;;;;5015997;28;20490;-85
2023/04/17 09:53:04;;;;;;;29.63;25.98;;;13.60;99.90;;;;;;5015336;28;20098;-85
2023/04/17 09:55:31;;;;;;;28.73;24.33;;;13.90;99.90;;;;;;5035192;28;20057;-86
2023/04/17 09:57:59;;;;;;;27.00;23.88;;;13.90;99.90;;;;;;5017776;28;20397;-86
2023/04/17 10:00:26;;;;;;;27.50;24.15;;;13.90;99.90;;;;;;5034905;28;20084;-86
2023/04/17 10:02:53;;;;;;;26.33;21.33;;;13.80;99.90;;;;;;5034369;28;20045;-86
2023/04/17 10:05:25;;;;;;;24.42;20.30;;;14.00;99.90;;;;;;5034118;28;20584;-86
2023/04/17 10:07:51;;;;;;;21.42;17.38;;;14.30;99.90;;;;;;5034544;28;20076;-87
2023/04/17 10:10:30;;;;;;;20.33;16.85;;;14.60;99.90;;;;;;5018378;28;20049;-86
2023/04/17 10:13:05;;;;;;;21.10;17.70;;;14.70;99.90;;;;;;5034471;28;20056;-86
2023/04/17 10:15:32;;;;;;;21.15;17.95;;;14.70;99.90;;;;;;5034321;28;20049;-87
2023/04/17 10:18:24;;;;;;;19.25;16.17;;;15.00;99.90;;;;;;5002069;28;20397;-86
2023/04/17 10:20:54;;;;;;;18.95;15.50;;;15.40;99.90;;;;;;5003556;28;20400;-87
2023/04/17 10:23:34;;;;;;;20.50;17.08;;;15.70;99.90;;;;;;5005910;28;20045;-86
2023/04/17 10:26:24;;;;;;;20.85;17.65;;;15.40;99.90;;;;;;5034104;28;20495;-87
2023/04/17 10:28:52;;;;;;;20.35;16.55;;;15.40;99.90;;;;;;5037168;28;20136;-87
2023/04/17 10:31:24;;;;;;;19.17;14.25;;;15.70;99.90;;;;;;5036039;28;20067;-87
2023/04/17 10:33:53;;;;;;;16.98;12.70;;;15.80;99.90;;;;;;5019032;28;20045;-86
2023/04/17 10:36:37;;;;;;;16.60;14.27;;;15.90;99.90;;;;;;5034946;28;20128;-87
2023/04/17 10:39:14;;;;;;;17.52;13.07;;;15.80;99.90;;;;;;5018837;28;20056;-86
2023/04/17 10:42:01;;;;;;;16.25;12.60;;;15.80;99.00;;;;;;5019528;28;20053;-86
2023/04/17 10:44:32;;;;;;;15.82;12.32;;;15.60;98.50;;;;;;5034898;28;20128;-86
2023/04/17 10:47:04;;;;;;;16.80;14.17;;;15.60;99.90;;;;;;5021909;28;20057;-87
2023/04/17 10:49:58;;;;;;;17.13;13.57;;;15.70;99.90;;;;;;5036032;28;20049;-87
2023/04/17 10:52:38;;;;;;;16.70;13.15;;;16.20;99.90;;;;;;5037577;28;20049;-87
2023/04/17 10:55:15;;;;;;;15.65;12.75;;;16.40;99.90;;;;;;5041174;28;20049;-87
2023/04/17 10:58:00;;;;;;;16.25;12.88;;;16.00;99.70;;;;;;5037368;28;20045;-87
2023/04/17 11:00:48;;;;;;;18.33;13.93;;;15.60;98.20;;;;;;5036039;28;20105;-86
2023/04/17 11:03:15;;;;;;;18.88;13.98;;;15.20;99.90;;;;;;5037925;28;20049;-87
2023/04/17 11:05:45;;;;;;;15.15;12.95;;;15.20;99.90;;;;;;5005588;28;20049;-87
2023/04/17 11:08:12;;;;;;;17.65;13.35;;;15.50;99.90;;;;;;5020554;28;20109;-87
2023/04/17 11:10:38;;;;;;;18.63;14.43;;;15.70;99.90;;;;;;5036645;28;20076;-87
2023/04/17 11:13:06;;;;;;;17.25;13.73;;;15.60;99.90;;;;;;5020987;28;20052;-87
2023/04/17 11:15:36;;;;;;;15.70;12.82;;;15.60;99.90;;;;;;5035500;28;20393;-87
2023/04/17 11:18:03;;;;;;;16.40;12.63;;;15.80;99.40;;;;;;5019478;28;20409;-86
2023/04/17 11:20:30;;;;;;;15.70;13.35;;;15.60;99.90;;;;;;5036912;28;20084;-87
2023/04/17 11:23:06;;;;;;;18.20;13.80;;;16.10;99.90;;;;;;5036292;28;20046;-87
2023/04/17 11:25:36;;;;;;;18.60;14.45;;;16.20;99.90;;;;;;5042419;28;20084;-87
2023/04/17 11:28:05;;;;;;;16.33;14.10;;;15.60;99.90;;;;;;5042711;28;20115;-87
2023/04/17 11:30:36;;;;;;;17.80;14.85;;;16.00;99.90;;;;;;5028860;28;20041;-85
2023/04/17 11:33:04;;;;;;;16.87;14.20;;;15.80;99.90;;;;;;5042496;28;20116;-88
2023/04/17 11:35:35;;;;;;;20.70;15.02;;;15.50;99.90;;;;;;5027916;28;20111;-85
2023/04/17 11:38:19;;;;;;;18.58;14.90;;;15.40;99.90;;;;;;5040243;28;20045;-85
2023/04/17 11:40:57;;;;;;;17.85;15.32;;;15.40;99.90;;;;;;5022453;28;20520;-86
2023/04/17 11:43:25;;;;;;;17.90;15.05;;;15.20;99.90;;;;;;5040329;28;20083;-86
2023/04/17 11:45:58;;;;;;;19.73;14.50;;;15.10;99.90;;;;;;5039539;28;20056;-88
2023/04/17 11:48:29;;;;;;;18.80;15.10;;;15.20;99.90;;;;;;5040030;28;20052;-85
2023/04/17 11:51:05;;;;;;;18.95;15.68;;;15.20;99.90;;;;;;5040800;28;20075;-85
2023/04/17 11:53:36;;;;;;;18.15;15.68;;;15.50;99.90;;;;;;5039866;28;20056;-85
2023/04/17 11:56:16;;;;;;;20.42;15.80;;;16.30;99.90;;;;;;5049756;28;20511;-86
2023/04/17 11:58:49;;;;;;;17.98;15.18;;;15.70;99.90;;;;;;5046020;28;20465;-84
2023/04/17 12:01:19;;;;;;;17.50;15.05;;;16.60;99.90;;;;;;5047320;28;20136;-86
2023/04/17 12:03:50;;;;;;;19.08;14.98;;;15.70;99.90;;;;;;5032262;28;20051;-86
2023/04/17 12:06:17;;;;;;;17.38;14.63;;;15.60;99.90;;;;;;5048213;28;20076;-86
2023/04/17 12:08:49;;;;;;;17.92;15.20;;;15.30;99.90;;;;;;5046936;28;20069;-86
2023/04/17 12:11:27;;;;;;;;;;;15.40;99.90;;;;;;5047929;28;20375;-86
2023/04/17 12:14:00;;;;;;;18.65;14.73;;;15.70;99.90;;;;;;5034334;28;19921;-85
2023/04/17 12:16:36;;;;;;;18.42;15.27;;;15.80;99.90;;;;;;5047810;28;20058;-85
2023/04/17 12:19:03;;;;;;;17.35;14.50;;;15.20;99.90;;;;;;5029313;28;20489;-85
2023/04/17 12:21:37;;;;;;;18.05;15.52;;;16.10;99.90;;;;;;5031596;28;20075;-85
2023/04/17 12:24:03;;;;;;;19.20;15.43;;;16.30;99.90;;;;;;5005408;28;20057;-85
2023/04/17 12:26:31;;;;;;;17.95;14.27;;;16.50;99.90;;;;;;5044918;28;20107;-86
2023/04/17 12:28:57;;;;;;;17.50;14.50;;;16.50;99.90;;;;;;5048238;28;20049;-87
2023/04/17 12:31:33;;;;;;;18.27;15.15;;;16.30;99.60;;;;;;5048749;28;20045;-86
2023/04/17 12:34:02;;;;;;;17.65;14.98;;;16.10;98.70;;;;;;5049969;28;20049;-86